CCA868 FAOR-ZGSZ
Flight info
| Callsign | CCA868 |
|---|---|
| Flight time | N/A |
| Altitude | 33000 |
| Route | EGMEN UQ2 EPSEK UM307 OTKIR G465 KAT P762 DWI L301 BKK A1 TOPER W42 RAMEI A202 AGPOR W71 LH R200 BIGRO W552 LOVTA |
| Aircraft | B77W/H-SDE1E2E3FGHIJ2J3J4J5M1RWXY/LB1D1 |
Departure
| Time | N/A |
|---|---|
| Airport | O.R. Tambo International Airport (FAOR) |
Arrival
| Time | 2026-04-17 06:35 |
|---|---|
| Airport | Shenzhen Bao'an International Airport (ZGSZ) |
| Time | Latitude | Longitude | Altitude | Speed | Heading |
|---|---|---|---|---|---|
| 2026-04-17 05:25 | 17.81159 | 106.23949 | 36862 ft | 544 kts | 46° |
| 2026-04-17 05:26 | 17.86296 | 106.30074 | 36851 ft | 536 kts | 46° |
| 2026-04-17 05:26 | 17.91010 | 106.35697 | 36849 ft | 543 kts | 46° |
| 2026-04-17 05:27 | 18.00483 | 106.47015 | 36846 ft | 543 kts | 46° |
| 2026-04-17 05:28 | 18.05249 | 106.52716 | 36853 ft | 542 kts | 46° |
| 2026-04-17 05:28 | 18.10096 | 106.58519 | 36858 ft | 543 kts | 46° |
| 2026-04-17 05:29 | 18.15012 | 106.64411 | 36855 ft | 543 kts | 46° |
| 2026-04-17 05:29 | 18.20018 | 106.70417 | 36854 ft | 543 kts | 46° |
| 2026-04-17 05:30 | 18.25006 | 106.76406 | 36849 ft | 544 kts | 46° |
| 2026-04-17 05:30 | 18.29968 | 106.82369 | 36859 ft | 544 kts | 47° |
| 2026-04-17 05:31 | 18.34967 | 106.88384 | 36876 ft | 543 kts | 46° |
| 2026-04-17 05:31 | 18.39920 | 106.94348 | 36874 ft | 544 kts | 46° |
| 2026-04-17 05:32 | 18.44972 | 107.00437 | 36880 ft | 544 kts | 46° |
| 2026-04-17 05:32 | 18.49931 | 107.06420 | 36882 ft | 543 kts | 46° |
| 2026-04-17 05:33 | 18.54958 | 107.12491 | 36879 ft | 544 kts | 46° |
| 2026-04-17 05:33 | 18.59915 | 107.18483 | 36884 ft | 544 kts | 46° |
| 2026-04-17 05:34 | 18.64882 | 107.24493 | 36889 ft | 544 kts | 46° |
| 2026-04-17 05:34 | 18.69859 | 107.30521 | 36887 ft | 544 kts | 47° |
| 2026-04-17 05:35 | 18.74897 | 107.36628 | 36889 ft | 544 kts | 46° |
| 2026-04-17 05:35 | 18.79938 | 107.42745 | 36892 ft | 545 kts | 46° |
| 2026-04-17 05:36 | 18.84997 | 107.48892 | 36890 ft | 545 kts | 46° |
| 2026-04-17 05:36 | 18.89989 | 107.54962 | 36895 ft | 544 kts | 46° |
| 2026-04-17 05:37 | 18.95044 | 107.61114 | 36896 ft | 545 kts | 46° |
| 2026-04-17 05:37 | 19.00070 | 107.67238 | 36888 ft | 546 kts | 47° |
| 2026-04-17 05:38 | 19.05025 | 107.73281 | 36890 ft | 545 kts | 47° |
| 2026-04-17 05:38 | 19.09997 | 107.79350 | 36900 ft | 545 kts | 47° |
| 2026-04-17 05:39 | 19.14978 | 107.85438 | 36904 ft | 545 kts | 47° |
| 2026-04-17 05:39 | 19.19911 | 107.91473 | 36907 ft | 545 kts | 47° |
| 2026-04-17 05:40 | 19.24879 | 107.97555 | 36906 ft | 545 kts | 47° |
| 2026-04-17 05:40 | 19.29873 | 108.03677 | 36905 ft | 546 kts | 47° |
| 2026-04-17 05:41 | 19.34848 | 108.09781 | 36905 ft | 546 kts | 47° |
| 2026-04-17 05:41 | 19.39825 | 108.15895 | 36903 ft | 546 kts | 47° |
| 2026-04-17 05:42 | 19.44789 | 108.21998 | 36902 ft | 546 kts | 47° |
| 2026-04-17 05:42 | 19.49892 | 108.28279 | 36902 ft | 546 kts | 47° |
| 2026-04-17 05:43 | 19.55029 | 108.34609 | 36901 ft | 547 kts | 47° |
| 2026-04-17 05:43 | 19.60636 | 108.41524 | 36900 ft | 546 kts | 47° |
| 2026-04-17 05:44 | 19.66183 | 108.48373 | 36899 ft | 547 kts | 47° |
| 2026-04-17 05:44 | 19.71764 | 108.55273 | 36900 ft | 548 kts | 47° |
| 2026-04-17 05:45 | 19.77291 | 108.62116 | 36900 ft | 548 kts | 47° |
| 2026-04-17 05:45 | 19.82274 | 108.68290 | 36890 ft | 549 kts | 47° |
| 2026-04-17 05:46 | 19.87122 | 108.74303 | 36888 ft | 549 kts | 47° |
| 2026-04-17 05:46 | 19.92101 | 108.80486 | 36892 ft | 549 kts | 47° |
| 2026-04-17 05:47 | 19.97055 | 108.86645 | 36887 ft | 549 kts | 47° |
| 2026-04-17 05:47 | 20.02048 | 108.92857 | 36890 ft | 549 kts | 47° |
| 2026-04-17 05:48 | 20.06997 | 108.99022 | 36889 ft | 550 kts | 47° |
| 2026-04-17 05:48 | 20.11988 | 109.05247 | 36889 ft | 549 kts | 47° |
| 2026-04-17 05:49 | 20.16917 | 109.11399 | 36891 ft | 549 kts | 47° |
| 2026-04-17 05:49 | 20.21870 | 109.17590 | 36891 ft | 549 kts | 47° |
| 2026-04-17 05:50 | 20.26906 | 109.23890 | 36876 ft | 550 kts | 47° |
| 2026-04-17 05:50 | 20.32027 | 109.30303 | 36869 ft | 550 kts | 47° |
| 2026-04-17 05:51 | 20.37060 | 109.36614 | 36868 ft | 549 kts | 47° |
| 2026-04-17 05:51 | 20.42080 | 109.42915 | 36868 ft | 550 kts | 47° |
| 2026-04-17 05:52 | 20.47032 | 109.49139 | 36870 ft | 550 kts | 47° |
| 2026-04-17 05:52 | 20.51998 | 109.55386 | 36873 ft | 549 kts | 47° |
| 2026-04-17 05:53 | 20.56936 | 109.61604 | 36879 ft | 550 kts | 47° |
| 2026-04-17 05:53 | 20.61885 | 109.67844 | 36873 ft | 549 kts | 47° |
| 2026-04-17 05:54 | 20.66832 | 109.74088 | 36878 ft | 551 kts | 47° |
| 2026-04-17 05:54 | 20.71815 | 109.80383 | 36884 ft | 552 kts | 47° |
| 2026-04-17 05:55 | 20.76790 | 109.86676 | 36886 ft | 552 kts | 47° |
| 2026-04-17 05:55 | 20.81767 | 109.92978 | 36888 ft | 553 kts | 47° |
| 2026-04-17 05:56 | 20.86718 | 109.99256 | 36889 ft | 553 kts | 47° |
| 2026-04-17 05:56 | 20.91704 | 110.05584 | 36892 ft | 553 kts | 47° |
| 2026-04-17 05:57 | 20.96648 | 110.11867 | 36896 ft | 554 kts | 47° |
| 2026-04-17 05:57 | 21.01597 | 110.18162 | 36901 ft | 553 kts | 47° |
| 2026-04-17 05:58 | 21.06581 | 110.24509 | 36905 ft | 553 kts | 47° |
| 2026-04-17 05:59 | 21.13294 | 110.34541 | 36905 ft | 558 kts | 63° |
| 2026-04-17 05:59 | 21.15999 | 110.42348 | 36908 ft | 561 kts | 71° |
| 2026-04-17 06:00 | 21.18416 | 110.50269 | 36911 ft | 561 kts | 71° |
| 2026-04-17 06:00 | 21.20807 | 110.58234 | 36911 ft | 561 kts | 71° |
| 2026-04-17 06:01 | 21.23188 | 110.66239 | 36903 ft | 562 kts | 72° |
| 2026-04-17 06:01 | 21.25547 | 110.74218 | 36896 ft | 562 kts | 72° |
| 2026-04-17 06:02 | 21.27895 | 110.82194 | 36901 ft | 562 kts | 72° |
| 2026-04-17 06:02 | 21.30239 | 110.90180 | 36903 ft | 561 kts | 72° |
| 2026-04-17 06:03 | 21.32579 | 110.98180 | 36910 ft | 562 kts | 72° |
| 2026-04-17 06:03 | 21.34914 | 111.06179 | 36921 ft | 562 kts | 72° |
| 2026-04-17 06:04 | 21.37235 | 111.14145 | 36923 ft | 563 kts | 72° |
| 2026-04-17 06:04 | 21.39574 | 111.22194 | 36926 ft | 563 kts | 72° |
| 2026-04-17 06:05 | 21.41895 | 111.30195 | 36929 ft | 563 kts | 72° |
| 2026-04-17 06:05 | 21.44208 | 111.38188 | 36928 ft | 562 kts | 72° |
| 2026-04-17 06:06 | 21.46523 | 111.46200 | 36932 ft | 563 kts | 72° |
| 2026-04-17 06:06 | 21.48839 | 111.54234 | 36933 ft | 563 kts | 72° |
| 2026-04-17 06:07 | 21.51139 | 111.62226 | 36932 ft | 562 kts | 72° |
| 2026-04-17 06:07 | 21.53441 | 111.70241 | 36915 ft | 562 kts | 72° |
| 2026-04-17 06:08 | 21.55739 | 111.78262 | 36918 ft | 562 kts | 72° |
| 2026-04-17 06:08 | 21.57957 | 111.86278 | 36929 ft | 561 kts | 75° |
| 2026-04-17 06:09 | 21.59896 | 111.94413 | 36929 ft | 561 kts | 75° |
| 2026-04-17 06:09 | 21.61822 | 112.02513 | 36930 ft | 560 kts | 75° |
| 2026-04-17 06:10 | 21.63760 | 112.10632 | 36929 ft | 562 kts | 75° |
| 2026-04-17 06:10 | 21.65711 | 112.18803 | 36937 ft | 561 kts | 75° |
| 2026-04-17 06:11 | 21.67823 | 112.27651 | 36936 ft | 562 kts | 75° |
| 2026-04-17 06:11 | 21.69930 | 112.36496 | 36933 ft | 562 kts | 75° |
| 2026-04-17 06:12 | 21.72002 | 112.45205 | 36929 ft | 562 kts | 75° |
| 2026-04-17 06:12 | 21.74068 | 112.53912 | 36920 ft | 561 kts | 75° |
| 2026-04-17 06:13 | 21.76060 | 112.62257 | 36927 ft | 559 kts | 75° |
| 2026-04-17 06:13 | 21.77033 | 112.66296 | 36800 ft | 554 kts | 75° |
| 2026-04-17 06:13 | 21.77985 | 112.70246 | 36507 ft | 544 kts | 75° |
| 2026-04-17 06:13 | 21.78931 | 112.74180 | 35528 ft | 547 kts | 75° |
| 2026-04-17 06:14 | 21.79885 | 112.78153 | 34107 ft | 556 kts | 75° |
| 2026-04-17 06:14 | 21.80854 | 112.82192 | 32779 ft | 561 kts | 75° |
| 2026-04-17 06:14 | 21.81822 | 112.86232 | 31701 ft | 562 kts | 75° |
| 2026-04-17 06:14 | 21.82801 | 112.90323 | 30630 ft | 563 kts | 75° |
| 2026-04-17 06:15 | 21.83765 | 112.94362 | 29871 ft | 557 kts | 75° |
| 2026-04-17 06:15 | 21.84718 | 112.98357 | 29315 ft | 549 kts | 75° |
| 2026-04-17 06:15 | 21.85655 | 113.02296 | 28676 ft | 543 kts | 75° |
| 2026-04-17 06:15 | 21.86581 | 113.06227 | 27962 ft | 539 kts | 75° |
| 2026-04-17 06:16 | 21.87495 | 113.10115 | 27238 ft | 535 kts | 75° |
| 2026-04-17 06:16 | 21.88393 | 113.13936 | 26525 ft | 531 kts | 75° |
| 2026-04-17 06:16 | 21.89295 | 113.17757 | 25795 ft | 527 kts | 74° |
| 2026-04-17 06:16 | 21.90496 | 113.21475 | 25072 ft | 521 kts | 65° |
| 2026-04-17 06:17 | 21.92134 | 113.24875 | 24341 ft | 515 kts | 57° |
| 2026-04-17 06:17 | 21.94221 | 113.27991 | 23605 ft | 508 kts | 48° |
| 2026-04-17 06:17 | 21.96664 | 113.30706 | 22844 ft | 502 kts | 39° |
| 2026-04-17 06:17 | 21.99370 | 113.32963 | 22095 ft | 495 kts | 31° |
| 2026-04-17 06:18 | 22.02325 | 113.34878 | 21341 ft | 489 kts | 27° |
| 2026-04-17 06:18 | 22.05277 | 113.36675 | 20595 ft | 485 kts | 26° |
| 2026-04-17 06:18 | 22.08224 | 113.38442 | 19908 ft | 479 kts | 26° |
| 2026-04-17 06:18 | 22.11078 | 113.40138 | 19356 ft | 468 kts | 25° |
| 2026-04-17 06:19 | 22.13943 | 113.41827 | 18497 ft | 463 kts | 25° |
| 2026-04-17 06:19 | 22.16819 | 113.43330 | 17679 ft | 451 kts | 17° |
| 2026-04-17 06:19 | 22.19779 | 113.44286 | 16960 ft | 435 kts | 7° |
| 2026-04-17 06:19 | 22.22721 | 113.44674 | 16313 ft | 418 kts | 357° |
| 2026-04-17 06:20 | 22.25575 | 113.44511 | 15761 ft | 399 kts | 347° |
| 2026-04-17 06:20 | 22.28230 | 113.43916 | 15246 ft | 384 kts | 342° |
| 2026-04-17 06:20 | 22.30786 | 113.43211 | 14549 ft | 377 kts | 341° |
| 2026-04-17 06:20 | 22.33262 | 113.42497 | 13790 ft | 374 kts | 341° |
| 2026-04-17 06:21 | 22.35683 | 113.41764 | 13064 ft | 369 kts | 341° |
| 2026-04-17 06:21 | 22.38217 | 113.41297 | 12263 ft | 370 kts | 353° |
| 2026-04-17 06:21 | 22.40789 | 113.41440 | 11412 ft | 373 kts | 6° |
| 2026-04-17 06:21 | 22.43280 | 113.42183 | 10607 ft | 374 kts | 19° |
| 2026-04-17 06:22 | 22.45574 | 113.43446 | 9824 ft | 373 kts | 31° |
| 2026-04-17 06:22 | 22.47579 | 113.45194 | 9307 ft | 364 kts | 43° |
| 2026-04-17 06:22 | 22.49144 | 113.47249 | 8928 ft | 346 kts | 55° |
| 2026-04-17 06:22 | 22.50271 | 113.49468 | 8671 ft | 326 kts | 63° |
| 2026-04-17 06:23 | 22.51210 | 113.51627 | 8527 ft | 305 kts | 63° |
| 2026-04-17 06:23 | 22.52125 | 113.53583 | 8404 ft | 285 kts | 53° |
| 2026-04-17 06:23 | 22.53497 | 113.55082 | 7912 ft | 278 kts | 28° |
| 2026-04-17 06:23 | 22.55258 | 113.55857 | 7393 ft | 272 kts | 10° |
| 2026-04-17 06:24 | 22.57109 | 113.56193 | 6908 ft | 268 kts | 4° |
| 2026-04-17 06:24 | 22.58944 | 113.56371 | 6430 ft | 264 kts | 1° |
| 2026-04-17 06:24 | 22.60787 | 113.56476 | 5926 ft | 261 kts | 0° |
| 2026-04-17 06:24 | 22.62598 | 113.56556 | 5420 ft | 260 kts | 0° |
| 2026-04-17 06:25 | 22.64391 | 113.56631 | 4902 ft | 259 kts | 0° |
| 2026-04-17 06:25 | 22.66197 | 113.56705 | 4379 ft | 259 kts | 0° |
| 2026-04-17 06:25 | 22.67996 | 113.56780 | 3939 ft | 255 kts | 1° |
| 2026-04-17 06:25 | 22.69759 | 113.56853 | 3854 ft | 257 kts | 1° |
| 2026-04-17 06:26 | 22.71563 | 113.56927 | 3841 ft | 258 kts | 1° |
| 2026-04-17 06:26 | 22.73368 | 113.57002 | 3833 ft | 257 kts | 1° |
| 2026-04-17 06:26 | 22.75145 | 113.57063 | 3836 ft | 257 kts | 0° |
| 2026-04-17 06:26 | 22.76938 | 113.57113 | 3836 ft | 257 kts | 0° |
| 2026-04-17 06:27 | 22.78742 | 113.57166 | 3871 ft | 259 kts | 0° |
| 2026-04-17 06:27 | 22.80546 | 113.57220 | 3844 ft | 257 kts | 1° |
| 2026-04-17 06:27 | 22.82294 | 113.57631 | 3832 ft | 259 kts | 25° |
| 2026-04-17 06:27 | 22.83675 | 113.58872 | 3826 ft | 260 kts | 51° |
| 2026-04-17 06:28 | 22.84608 | 113.60445 | 3837 ft | 240 kts | 59° |
| 2026-04-17 06:28 | 22.85375 | 113.61983 | 3831 ft | 222 kts | 61° |
| 2026-04-17 06:28 | 22.86068 | 113.63421 | 3802 ft | 207 kts | 61° |
| 2026-04-17 06:28 | 22.86724 | 113.64789 | 3578 ft | 204 kts | 61° |
| 2026-04-17 06:29 | 22.87237 | 113.66221 | 3399 ft | 202 kts | 83° |
| 2026-04-17 06:29 | 22.87110 | 113.67475 | 3238 ft | 204 kts | 106° |
| 2026-04-17 06:29 | 22.86359 | 113.68728 | 3034 ft | 200 kts | 141° |
| 2026-04-17 06:29 | 22.85328 | 113.69426 | 2874 ft | 200 kts | 152° |
| 2026-04-17 06:30 | 22.84083 | 113.70117 | 2692 ft | 198 kts | 154° |
| 2026-04-17 06:30 | 22.82851 | 113.70776 | 2508 ft | 195 kts | 155° |
| 2026-04-17 06:30 | 22.81638 | 113.71423 | 2328 ft | 195 kts | 154° |
| 2026-04-17 06:30 | 22.80423 | 113.72079 | 2145 ft | 195 kts | 154° |
| 2026-04-17 06:31 | 22.79204 | 113.72740 | 2043 ft | 190 kts | 155° |
| 2026-04-17 06:31 | 22.77992 | 113.73400 | 2080 ft | 194 kts | 155° |
| 2026-04-17 06:31 | 22.76800 | 113.74050 | 2084 ft | 191 kts | 154° |
| 2026-04-17 06:31 | 22.75582 | 113.74715 | 2087 ft | 192 kts | 154° |
| 2026-04-17 06:32 | 22.74358 | 113.75384 | 1919 ft | 197 kts | 154° |
| 2026-04-17 06:32 | 22.73169 | 113.76034 | 1661 ft | 189 kts | 155° |
| 2026-04-17 06:32 | 22.72001 | 113.76668 | 1409 ft | 173 kts | 154° |
| 2026-04-17 06:32 | 22.70976 | 113.77226 | 1205 ft | 161 kts | 154° |
| 2026-04-17 06:33 | 22.69982 | 113.77769 | 1012 ft | 155 kts | 154° |
| 2026-04-17 06:33 | 22.69024 | 113.78292 | 802 ft | 154 kts | 154° |
| 2026-04-17 06:33 | 22.68071 | 113.78812 | 596 ft | 153 kts | 154° |
| 2026-04-17 06:33 | 22.67126 | 113.79325 | 434 ft | 153 kts | 154° |
| 2026-04-17 06:34 | 22.66172 | 113.79842 | 268 ft | 155 kts | 153° |
| 2026-04-17 06:34 | 22.65226 | 113.80368 | 81 ft | 153 kts | 154° |
| 2026-04-17 06:34 | 22.64348 | 113.80832 | 28 ft | 125 kts | 149° |
| 2026-04-17 06:34 | 22.63648 | 113.81220 | 27 ft | 89 kts | 149° |
| 2026-04-17 06:35 | 22.63289 | 113.81413 | 27 ft | 33 kts | 154° |
| 2026-04-17 06:35 | 22.63170 | 113.81462 | 27 ft | 8 kts | 179° |
| 2026-04-17 06:35 | 22.63118 | 113.81457 | 27 ft | 9 kts | 185° |
| 2026-04-17 06:35 | 22.63047 | 113.81450 | 27 ft | 10 kts | 185° |
| 2026-04-17 06:36 | 22.62976 | 113.81440 | 27 ft | 3 kts | 197° |
| 2026-04-17 06:36 | 22.62957 | 113.81413 | 27 ft | 7 kts | 243° |
| 2026-04-17 06:36 | 22.62921 | 113.81343 | 27 ft | 4 kts | 243° |
| 2026-04-17 06:36 | 22.62928 | 113.81296 | 27 ft | 10 kts | 308° |
| 2026-04-17 06:37 | 22.63005 | 113.81247 | 27 ft | 13 kts | 332° |
| 2026-04-17 06:37 | 22.63066 | 113.81210 | 27 ft | 5 kts | 313° |
| 2026-04-17 06:37 | 22.63067 | 113.81164 | 27 ft | 6 kts | 237° |
| 2026-04-17 06:37 | 22.63047 | 113.81145 | 27 ft | 7 kts | 223° |
| 2026-04-17 06:38 | 22.63035 | 113.81129 | 27 ft | 3 kts | 231° |
| 2026-04-17 06:38 | 22.63023 | 113.81113 | 27 ft | 3 kts | 234° |
| 2026-04-17 06:38 | 22.63018 | 113.81105 | 27 ft | 0 kts | 233° |